sensor_id;sensor_type;location;lat;lon;timestamp;pressure;altitude;pressure_sealevel;temperature;humidity
18819;BME280;9537;45.594;9.294;2022-10-16T00:00:28;100097.56;;;16.18;96.77
18819;BME280;9537;45.594;9.294;2022-10-16T00:01:30;100094.91;;;16.18;96.86
18819;BME280;9537;45.594;9.294;2022-10-16T00:02:32;100093.06;;;16.18;97.19
18819;BME280;9537;45.594;9.294;2022-10-16T00:03:35;100095.72;;;16.18;97.18
18819;BME280;9537;45.594;9.294;2022-10-16T00:04:36;100094.91;;;16.18;97.10
18819;BME280;9537;45.594;9.294;2022-10-16T00:05:40;100094.91;;;16.18;97.10
18819;BME280;9537;45.594;9.294;2022-10-16T00:06:41;100102.69;;;16.19;96.97
18819;BME280;9537;45.594;9.294;2022-10-16T00:07:43;100094.91;;;16.18;96.79
18819;BME280;9537;45.594;9.294;2022-10-16T00:08:44;100094.09;;;16.17;96.92
18819;BME280;9537;45.594;9.294;2022-10-16T00:09:46;100094.09;;;16.17;96.84
18819;BME280;9537;45.594;9.294;2022-10-16T00:10:48;100100.22;;;16.18;96.77
18819;BME280;9537;45.594;9.294;2022-10-16T00:11:49;100092.22;;;16.18;96.77
18819;BME280;9537;45.594;9.294;2022-10-16T00:12:50;100097.34;;;16.19;96.60
18819;BME280;9537;45.594;9.294;2022-10-16T00:13:57;100094.69;;;16.19;96.58
18819;BME280;9537;45.594;9.294;2022-10-16T00:14:59;100095.31;;;16.21;96.38
18819;BME280;9537;45.594;9.294;2022-10-16T00:16:01;100093.69;;;16.20;96.39
18819;BME280;9537;45.594;9.294;2022-10-16T00:17:02;100101.03;;;16.18;96.60
18819;BME280;9537;45.594;9.294;2022-10-16T00:18:05;100096.53;;;16.19;96.83
18819;BME280;9537;45.594;9.294;2022-10-16T00:19:06;100094.91;;;16.18;96.91
18819;BME280;9537;45.594;9.294;2022-10-16T00:20:08;100102.06;;;16.17;96.79
18819;BME280;9537;45.594;9.294;2022-10-16T00:21:11;100089.75;;;16.16;97.30
18819;BME280;9537;45.594;9.294;2022-10-16T00:22:14;100093.44;;;16.15;97.43
18819;BME280;9537;45.594;9.294;2022-10-16T00:23:15;100091.59;;;16.16;97.56
18819;BME280;9537;45.594;9.294;2022-10-16T00:24:17;100096.13;;;16.15;97.54
18819;BME280;9537;45.594;9.294;2022-10-16T00:25:18;100102.25;;;16.16;97.32
18819;BME280;9537;45.594;9.294;2022-10-16T00:26:20;100102.25;;;16.16;97.34
18819;BME280;9537;45.594;9.294;2022-10-16T00:27:21;100097.75;;;16.16;97.35
18819;BME280;9537;45.594;9.294;2022-10-16T00:28:23;100099.41;;;16.17;97.34
18819;BME280;9537;45.594;9.294;2022-10-16T00:29:25;100102.91;;;16.18;97.25
18819;BME280;9537;45.594;9.294;2022-10-16T00:30:27;100092.41;;;16.16;97.19
18819;BME280;9537;45.594;9.294;2022-10-16T00:31:29;100094.28;;;16.16;96.86
18819;BME280;9537;45.594;9.294;2022-10-16T00:32:32;100098.78;;;16.15;96.96
18819;BME280;9537;45.594;9.294;2022-10-16T00:33:34;100094.09;;;16.17;97.08
18819;BME280;9537;45.594;9.294;2022-10-16T00:34:36;100098.59;;;16.17;97.11
18819;BME280;9537;45.594;9.294;2022-10-16T00:35:37;100095.09;;;16.16;96.98
18819;BME280;9537;45.594;9.294;2022-10-16T00:36:39;100096.75;;;16.17;97.20
18819;BME280;9537;45.594;9.294;2022-10-16T00:37:40;100093.25;;;16.17;96.99
18819;BME280;9537;45.594;9.294;2022-10-16T00:38:43;100100.22;;;16.18;96.96
18819;BME280;9537;45.594;9.294;2022-10-16T00:39:44;100098.78;;;16.15;97.00
18819;BME280;9537;45.594;9.294;2022-10-16T00:40:46;100095.09;;;16.16;97.11
18819;BME280;9537;45.594;9.294;2022-10-16T00:41:47;100099.59;;;16.16;97.15
18819;BME280;9537;45.594;9.294;2022-10-16T00:42:49;100103.47;;;16.13;97.27
18819;BME280;9537;45.594;9.294;2022-10-16T00:43:53;100100.81;;;16.13;97.21
18819;BME280;9537;45.594;9.294;2022-10-16T00:44:57;100101.03;;;16.12;97.28
18819;BME280;9537;45.594;9.294;2022-10-16T00:45:58;100100.22;;;16.11;97.33
18819;BME280;9537;45.594;9.294;2022-10-16T00:47:01;100099.19;;;16.12;97.20
18819;BME280;9537;45.594;9.294;2022-10-16T00:48:02;100094.88;;;16.11;97.24
18819;BME280;9537;45.594;9.294;2022-10-16T00:49:06;100096.50;;;16.12;97.10
18819;BME280;9537;45.594;9.294;2022-10-16T00:50:11;100101.03;;;16.12;97.04
18819;BME280;9537;45.594;9.294;2022-10-16T00:51:15;100101.84;;;16.12;97.08
18819;BME280;9537;45.594;9.294;2022-10-16T00:52:16;100101.84;;;16.12;97.00
18819;BME280;9537;45.594;9.294;2022-10-16T00:53:19;100108.19;;;16.11;97.23
18819;BME280;9537;45.594;9.294;2022-10-16T00:54:23;100102.66;;;16.13;97.12
18819;BME280;9537;45.594;9.294;2022-10-16T00:55:26;100098.34;;;16.12;97.16
18819;BME280;9537;45.594;9.294;2022-10-16T00:56:28;100100.00;;;16.13;96.92
18819;BME280;9537;45.594;9.294;2022-10-16T00:57:30;100098.34;;;16.12;96.87
18819;BME280;9537;45.594;9.294;2022-10-16T00:58:31;100107.19;;;16.12;96.86
18819;BME280;9537;45.594;9.294;2022-10-16T00:59:36;100101.03;;;16.12;96.88
18819;BME280;9537;45.594;9.294;2022-10-16T01:00:38;100091.19;;;16.12;96.90
18819;BME280;9537;45.594;9.294;2022-10-16T01:01:41;100099.19;;;16.12;96.78
18819;BME280;9537;45.594;9.294;2022-10-16T01:02:41;100102.88;;;16.11;96.88
18819;BME280;9537;45.594;9.294;2022-10-16T01:03:44;100097.31;;;16.13;96.88
18819;BME280;9537;45.594;9.294;2022-10-16T01:04:48;100100.00;;;16.13;96.92
18819;BME280;9537;45.594;9.294;2022-10-16T01:05:58;100090.38;;;16.12;96.97
18819;BME280;9537;45.594;9.294;2022-10-16T01:07:09;100101.84;;;16.12;97.11
18819;BME280;9537;45.594;9.294;2022-10-16T01:08:17;100095.47;;;16.13;96.99
18819;BME280;9537;45.594;9.294;2022-10-16T01:09:23;100095.88;;;16.10;97.31
18819;BME280;9537;45.594;9.294;2022-10-16T01:10:35;100097.31;;;16.13;97.35
18819;BME280;9537;45.594;9.294;2022-10-16T01:11:45;100095.69;;;16.12;97.88
18819;BME280;9537;45.594;9.294;2022-10-16T01:12:55;100096.50;;;16.12;97.78
18819;BME280;9537;45.594;9.294;2022-10-16T01:14:02;100092.00;;;16.13;97.73
18819;BME280;9537;45.594;9.294;2022-10-16T01:15:11;100085.03;;;16.12;97.76
18819;BME280;9537;45.594;9.294;2022-10-16T01:16:24;100094.66;;;16.13;97.78
18819;BME280;9537;45.594;9.294;2022-10-16T01:17:35;100093.03;;;16.12;97.68
18819;BME280;9537;45.594;9.294;2022-10-16T01:18:43;100090.38;;;16.12;97.94
18819;BME280;9537;45.594;9.294;2022-10-16T01:20:02;100086.03;;;16.11;97.98
18819;BME280;9537;45.594;9.294;2022-10-16T01:21:08;100088.69;;;16.11;97.99
18819;BME280;9537;45.594;9.294;2022-10-16T01:22:11;100090.56;;;16.10;98.11
18819;BME280;9537;45.594;9.294;2022-10-16T01:23:22;100091.38;;;16.11;98.54
18819;BME280;9537;45.594;9.294;2022-10-16T01:24:31;100094.03;;;16.11;98.71
18819;BME280;9537;45.594;9.294;2022-10-16T01:25:51;100090.75;;;16.09;98.71
18819;BME280;9537;45.594;9.294;2022-10-16T01:27:09;100092.63;;;16.08;99.15
18819;BME280;9537;45.594;9.294;2022-10-16T01:28:12;100087.06;;;16.10;99.06
18819;BME280;9537;45.594;9.294;2022-10-16T01:29:18;100094.03;;;16.11;99.00
18819;BME280;9537;45.594;9.294;2022-10-16T01:30:24;100092.41;;;16.10;98.98
18819;BME280;9537;45.594;9.294;2022-10-16T01:31:31;100088.91;;;16.09;98.91
18819;BME280;9537;45.594;9.294;2022-10-16T01:32:38;100093.22;;;16.10;98.98
18819;BME280;9537;45.594;9.294;2022-10-16T01:33:43;100094.25;;;16.09;98.98
18819;BME280;9537;45.594;9.294;2022-10-16T01:34:51;100097.72;;;16.10;99.23
18819;BME280;9537;45.594;9.294;2022-10-16T01:35:57;100094.25;;;16.09;99.19
18819;BME280;9537;45.594;9.294;2022-10-16T01:37:05;100096.91;;;16.09;99.21
18819;BME280;9537;45.594;9.294;2022-10-16T01:38:12;100096.09;;;16.09;99.32
18819;BME280;9537;45.594;9.294;2022-10-16T01:39:20;100095.28;;;16.08;99.53
18819;BME280;9537;45.594;9.294;2022-10-16T01:40:24;100083.78;;;16.08;99.65
18819;BME280;9537;45.594;9.294;2022-10-16T01:41:31;100087.28;;;16.08;99.73
18819;BME280;9537;45.594;9.294;2022-10-16T01:42:38;100092.78;;;16.07;99.69
18819;BME280;9537;45.594;9.294;2022-10-16T01:43:45;100084.63;;;16.08;99.62
18819;BME280;9537;45.594;9.294;2022-10-16T01:44:48;100089.09;;;16.08;99.66
18819;BME280;9537;45.594;9.294;2022-10-16T01:45:52;100083.78;;;16.08;99.67
18819;BME280;9537;45.594;9.294;2022-10-16T01:46:55;100085.44;;;16.09;99.65
18819;BME280;9537;45.594;9.294;2022-10-16T01:47:59;100091.59;;;16.09;99.63
18819;BME280;9537;45.594;9.294;2022-10-16T01:49:02;100082.56;;;16.10;99.57
18819;BME280;9537;45.594;9.294;2022-10-16T01:50:05;100086.88;;;16.11;99.50
18819;BME280;9537;45.594;9.294;2022-10-16T01:51:10;100079.91;;;16.10;99.57
18819;BME280;9537;45.594;9.294;2022-10-16T01:52:17;100084.22;;;16.11;99.50
18819;BME280;9537;45.594;9.294;2022-10-16T01:53:21;100077.84;;;16.12;99.61
18819;BME280;9537;45.594;9.294;2022-10-16T01:54:27;100076.81;;;16.13;99.74
18819;BME280;9537;45.594;9.294;2022-10-16T01:55:32;100086.66;;;16.13;99.73
18819;BME280;9537;45.594;9.294;2022-10-16T01:56:36;100080.53;;;16.12;99.59
18819;BME280;9537;45.594;9.294;2022-10-16T01:57:44;100084.00;;;16.13;99.80
18819;BME280;9537;45.594;9.294;2022-10-16T01:58:51;100084.00;;;16.13;99.90
18819;BME280;9537;45.594;9.294;2022-10-16T01:59:56;100090.16;;;16.13;99.76
18819;BME280;9537;45.594;9.294;2022-10-16T02:01:01;100080.53;;;16.12;99.90
18819;BME280;9537;45.594;9.294;2022-10-16T02:02:06;100086.66;;;16.13;99.92
18819;BME280;9537;45.594;9.294;2022-10-16T02:03:11;100086.88;;;16.11;100.00
18819;BME280;9537;45.594;9.294;2022-10-16T02:04:17;100095.88;;;16.10;99.93
18819;BME280;9537;45.594;9.294;2022-10-16T02:05:24;100094.88;;;16.11;100.00
18819;BME280;9537;45.594;9.294;2022-10-16T02:06:27;100094.88;;;16.11;100.00
18819;BME280;9537;45.594;9.294;2022-10-16T02:07:30;100096.69;;;16.11;100.00
18819;BME280;9537;45.594;9.294;2022-10-16T02:08:31;100088.91;;;16.09;100.00
18819;BME280;9537;45.594;9.294;2022-10-16T02:09:34;100094.44;;;16.08;100.00
18819;BME280;9537;45.594;9.294;2022-10-16T02:10:36;100087.28;;;16.08;100.00
18819;BME280;9537;45.594;9.294;2022-10-16T02:11:38;100089.09;;;16.08;100.00
18819;BME280;9537;45.594;9.294;2022-10-16T02:12:45;100088.91;;;16.09;100.00
18819;BME280;9537;45.594;9.294;2022-10-16T02:13:53;100094.44;;;16.08;100.00
18819;BME280;9537;45.594;9.294;2022-10-16T02:14:56;100099.75;;;16.08;100.00
18819;BME280;9537;45.594;9.294;2022-10-16T02:15:58;100099.16;;;16.06;100.00
18819;BME280;9537;45.594;9.294;2022-10-16T02:16:59;100098.13;;;16.07;100.00
18819;BME280;9537;45.594;9.294;2022-10-16T02:18:01;100097.31;;;16.06;100.00
18819;BME280;9537;45.594;9.294;2022-10-16T02:19:04;100099.75;;;16.08;100.00
18819;BME280;9537;45.594;9.294;2022-10-16T02:20:08;100098.13;;;16.07;100.00
18819;BME280;9537;45.594;9.294;2022-10-16T02:21:13;100095.66;;;16.05;100.00
18819;BME280;9537;45.594;9.294;2022-10-16T02:22:23;100095.47;;;16.07;100.00
18819;BME280;9537;45.594;9.294;2022-10-16T02:23:34;100093.63;;;16.07;100.00
18819;BME280;9537;45.594;9.294;2022-10-16T02:24:41;100098.94;;;16.07;100.00
18819;BME280;9537;45.594;9.294;2022-10-16T02:25:45;100092.78;;;16.07;100.00
18819;BME280;9537;45.594;9.294;2022-10-16T02:26:53;100094.44;;;16.08;100.00
18819;BME280;9537;45.594;9.294;2022-10-16T02:28:03;100097.94;;;16.08;100.00
18819;BME280;9537;45.594;9.294;2022-10-16T02:29:10;100101.59;;;16.07;100.00
18819;BME280;9537;45.594;9.294;2022-10-16T02:30:16;100105.09;;;16.08;100.00
18819;BME280;9537;45.594;9.294;2022-10-16T02:31:24;100090.13;;;16.07;100.00
18819;BME280;9537;45.594;9.294;2022-10-16T02:32:30;100096.28;;;16.07;100.00
18819;BME280;9537;45.594;9.294;2022-10-16T02:33:33;100105.94;;;16.08;100.00
18819;BME280;9537;45.594;9.294;2022-10-16T02:34:36;100100.59;;;16.08;100.00
18819;BME280;9537;45.594;9.294;2022-10-16T02:35:40;100101.44;;;16.09;100.00
18819;BME280;9537;45.594;9.294;2022-10-16T02:36:41;100098.53;;;16.10;100.00
18819;BME280;9537;45.594;9.294;2022-10-16T02:37:46;100103.06;;;16.10;100.00
18819;BME280;9537;45.594;9.294;2022-10-16T02:38:47;100100.41;;;16.10;100.00
18819;BME280;9537;45.594;9.294;2022-10-16T02:39:49;100105.94;;;16.08;100.00
18819;BME280;9537;45.594;9.294;2022-10-16T02:40:50;100102.63;;;16.06;100.00
18819;BME280;9537;45.594;9.294;2022-10-16T02:41:53;100107.16;;;16.06;100.00
18819;BME280;9537;45.594;9.294;2022-10-16T02:42:54;100098.31;;;16.05;100.00
18819;BME280;9537;45.594;9.294;2022-10-16T02:43:58;100106.31;;;16.05;100.00
18819;BME280;9537;45.594;9.294;2022-10-16T02:44:59;100103.63;;;16.05;100.00
18819;BME280;9537;45.594;9.294;2022-10-16T02:46:01;100104.66;;;16.04;100.00
18819;BME280;9537;45.594;9.294;2022-10-16T02:47:03;100111.63;;;16.05;100.00
18819;BME280;9537;45.594;9.294;2022-10-16T02:48:06;100107.16;;;16.06;100.00
18819;BME280;9537;45.594;9.294;2022-10-16T02:49:07;100110.63;;;16.06;100.00
18819;BME280;9537;45.594;9.294;2022-10-16T02:50:10;100106.31;;;16.05;100.00
18819;BME280;9537;45.594;9.294;2022-10-16T02:51:11;100107.16;;;16.06;100.00
18819;BME280;9537;45.594;9.294;2022-10-16T02:52:13;100103.63;;;16.05;100.00
18819;BME280;9537;45.594;9.294;2022-10-16T02:53:14;100113.28;;;16.06;100.00
18819;BME280;9537;45.594;9.294;2022-10-16T02:54:16;100107.97;;;16.06;100.00
18819;BME280;9537;45.594;9.294;2022-10-16T02:55:17;100108.78;;;16.07;100.00
18819;BME280;9537;45.594;9.294;2022-10-16T02:56:19;100114.94;;;16.07;100.00
18819;BME280;9537;45.594;9.294;2022-10-16T02:57:21;100117.59;;;16.07;100.00
18819;BME280;9537;45.594;9.294;2022-10-16T02:58:23;100127.03;;;16.10;100.00
18819;BME280;9537;45.594;9.294;2022-10-16T02:59:25;100120.69;;;16.11;100.00
18819;BME280;9537;45.594;9.294;2022-10-16T03:00:27;100121.53;;;16.11;100.00
18819;BME280;9537;45.594;9.294;2022-10-16T03:01:29;100123.34;;;16.11;100.00
18819;BME280;9537;45.594;9.294;2022-10-16T03:02:30;100114.94;;;16.07;100.00
18819;BME280;9537;45.594;9.294;2022-10-16T03:03:32;100120.47;;;16.06;100.00
18819;BME280;9537;45.594;9.294;2022-10-16T03:04:33;100126.81;;;16.05;100.00
18819;BME280;9537;45.594;9.294;2022-10-16T03:05:36;100118.00;;;16.04;100.00
18819;BME280;9537;45.594;9.294;2022-10-16T03:06:37;100122.28;;;16.05;100.00
18819;BME280;9537;45.594;9.294;2022-10-16T03:07:39;100123.31;;;16.04;100.00
18819;BME280;9537;45.594;9.294;2022-10-16T03:08:40;100116.97;;;16.05;100.00
18819;BME280;9537;45.594;9.294;2022-10-16T03:09:42;100121.28;;;16.06;100.00
18819;BME280;9537;45.594;9.294;2022-10-16T03:10:43;100116.78;;;16.07;100.00
18819;BME280;9537;45.594;9.294;2022-10-16T03:11:45;100121.28;;;16.06;100.00
18819;BME280;9537;45.594;9.294;2022-10-16T03:12:46;100121.28;;;16.06;100.00
18819;BME280;9537;45.594;9.294;2022-10-16T03:13:49;100115.97;;;16.06;100.00
18819;BME280;9537;45.594;9.294;2022-10-16T03:14:51;100118.63;;;16.06;100.00
18819;BME280;9537;45.594;9.294;2022-10-16T03:15:53;100117.41;;;16.09;100.00
18819;BME280;9537;45.594;9.294;2022-10-16T03:16:54;100115.75;;;16.08;100.00
18819;BME280;9537;45.594;9.294;2022-10-16T03:17:57;100116.59;;;16.08;100.00
18819;BME280;9537;45.594;9.294;2022-10-16T03:18:59;100121.06;;;16.08;100.00
18819;BME280;9537;45.594;9.294;2022-10-16T03:20:01;100118.41;;;16.08;100.00
18819;BME280;9537;45.594;9.294;2022-10-16T03:21:02;100122.75;;;16.09;100.00
18819;BME280;9537;45.594;9.294;2022-10-16T03:22:04;100122.75;;;16.09;100.00
18819;BME280;9537;45.594;9.294;2022-10-16T03:23:06;100127.25;;;16.08;100.00
18819;BME280;9537;45.594;9.294;2022-10-16T03:24:08;100125.59;;;16.07;100.00
18819;BME280;9537;45.594;9.294;2022-10-16T03:25:09;100123.94;;;16.06;100.00
18819;BME280;9537;45.594;9.294;2022-10-16T03:26:11;100125.59;;;16.07;100.00
18819;BME280;9537;45.594;9.294;2022-10-16T03:27:12;100129.28;;;16.06;100.00
18819;BME280;9537;45.594;9.294;2022-10-16T03:28:14;100127.44;;;16.07;100.00
18819;BME280;9537;45.594;9.294;2022-10-16T03:29:16;100125.81;;;16.06;100.00
18819;BME280;9537;45.594;9.294;2022-10-16T03:30:19;100128.25;;;16.07;100.00
18819;BME280;9537;45.594;9.294;2022-10-16T03:31:20;100130.28;;;16.05;100.00
18819;BME280;9537;45.594;9.294;2022-10-16T03:32:25;100127.44;;;16.07;100.00
18819;BME280;9537;45.594;9.294;2022-10-16T03:33:26;100129.28;;;16.06;100.00
18819;BME280;9537;45.594;9.294;2022-10-16T03:34:29;100129.69;;;16.03;100.00
18819;BME280;9537;45.594;9.294;2022-10-16T03:35:33;100134.78;;;16.05;100.00
18819;BME280;9537;45.594;9.294;2022-10-16T03:36:35;100132.94;;;16.05;100.00
18819;BME280;9537;45.594;9.294;2022-10-16T03:37:37;100132.13;;;16.05;100.00
18819;BME280;9537;45.594;9.294;2022-10-16T03:38:38;100135.81;;;16.04;100.00
18819;BME280;9537;45.594;9.294;2022-10-16T03:39:40;100136.84;;;16.03;100.00
18819;BME280;9537;45.594;9.294;2022-10-16T03:40:41;100129.03;;;16.01;100.00
18819;BME280;9537;45.594;9.294;2022-10-16T03:41:43;100132.75;;;16.00;100.00
18819;BME280;9537;45.594;9.294;2022-10-16T03:42:44;100138.06;;;16.00;100.00
18819;BME280;9537;45.594;9.294;2022-10-16T03:43:46;100136.22;;;16.01;100.00
18819;BME280;9537;45.594;9.294;2022-10-16T03:44:47;100137.03;;;16.01;100.00
18819;BME280;9537;45.594;9.294;2022-10-16T03:45:51;100137.84;;;16.02;100.00
18819;BME280;9537;45.594;9.294;2022-10-16T03:46:52;100140.53;;;16.02;100.00
18819;BME280;9537;45.594;9.294;2022-10-16T03:47:54;100139.69;;;16.01;100.00
18819;BME280;9537;45.594;9.294;2022-10-16T03:48:56;100141.53;;;16.01;100.00
18819;BME280;9537;45.594;9.294;2022-10-16T03:49:57;100140.72;;;16.00;100.00
18819;BME280;9537;45.594;9.294;2022-10-16T03:50:59;100143.41;;;16.00;100.00
18819;BME280;9537;45.594;9.294;2022-10-16T03:52:00;100147.28;;;15.97;100.00
18819;BME280;9537;45.594;9.294;2022-10-16T03:53:03;100144.78;;;15.96;100.00
18819;BME280;9537;45.594;9.294;2022-10-16T03:54:04;100145.59;;;15.96;100.00
18819;BME280;9537;45.594;9.294;2022-10-16T03:55:07;100147.44;;;15.96;100.00
18819;BME280;9537;45.594;9.294;2022-10-16T03:56:08;100143.16;;;15.95;100.00
18819;BME280;9537;45.594;9.294;2022-10-16T03:57:13;100139.84;;;15.93;100.00
18819;BME280;9537;45.594;9.294;2022-10-16T03:58:14;100147.84;;;15.93;100.00
18819;BME280;9537;45.594;9.294;2022-10-16T03:59:16;100139.22;;;15.91;100.00
18819;BME280;9537;45.594;9.294;2022-10-16T04:00:17;100141.88;;;15.91;100.00
18819;BME280;9537;45.594;9.294;2022-10-16T04:01:20;100147.84;;;15.93;100.00
18819;BME280;9537;45.594;9.294;2022-10-16T04:02:22;100146.00;;;15.93;100.00
18819;BME280;9537;45.594;9.294;2022-10-16T04:03:24;100140.66;;;15.93;100.00
18819;BME280;9537;45.594;9.294;2022-10-16T04:04:25;100146.00;;;15.93;100.00
18819;BME280;9537;45.594;9.294;2022-10-16T04:05:28;100151.31;;;15.93;100.00
18819;BME280;9537;45.594;9.294;2022-10-16T04:06:28;100148.66;;;15.93;100.00
18819;BME280;9537;45.594;9.294;2022-10-16T04:07:30;100149.69;;;15.92;100.00
18819;BME280;9537;45.594;9.294;2022-10-16T04:08:31;100156.47;;;15.95;100.00
18819;BME280;9537;45.594;9.294;2022-10-16T04:09:35;100151.31;;;15.93;100.00
18819;BME280;9537;45.594;9.294;2022-10-16T04:10:36;100159.13;;;15.95;100.00
18819;BME280;9537;45.594;9.294;2022-10-16T04:11:38;100150.50;;;15.93;100.00
18819;BME280;9537;45.594;9.294;2022-10-16T04:12:39;100157.69;;;15.92;100.00
18819;BME280;9537;45.594;9.294;2022-10-16T04:13:41;100154.38;;;15.90;100.00
18819;BME280;9537;45.594;9.294;2022-10-16T04:14:42;100157.44;;;15.87;100.00
18819;BME280;9537;45.594;9.294;2022-10-16T04:15:45;100160.75;;;15.89;100.00
18819;BME280;9537;45.594;9.294;2022-10-16T04:16:48;100158.06;;;15.89;100.00
18819;BME280;9537;45.594;9.294;2022-10-16T04:17:50;100163.59;;;15.88;100.00
18819;BME280;9537;45.594;9.294;2022-10-16T04:18:51;100158.72;;;15.91;100.00
18819;BME280;9537;45.594;9.294;2022-10-16T04:19:53;100161.38;;;15.91;100.00
18819;BME280;9537;45.594;9.294;2022-10-16T04:20:54;100162.19;;;15.92;100.00
18819;BME280;9537;45.594;9.294;2022-10-16T04:21:57;100164.84;;;15.92;100.00
18819;BME280;9537;45.594;9.294;2022-10-16T04:22:57;100167.53;;;15.92;100.00
18819;BME280;9537;45.594;9.294;2022-10-16T04:23:59;100169.38;;;15.91;100.00
18819;BME280;9537;45.594;9.294;2022-10-16T04:25:00;100169.38;;;15.91;100.00
18819;BME280;9537;45.594;9.294;2022-10-16T04:26:03;100166.88;;;15.90;100.00
18819;BME280;9537;45.594;9.294;2022-10-16T04:27:04;100172.22;;;15.90;100.00
18819;BME280;9537;45.594;9.294;2022-10-16T04:28:06;100168.09;;;15.87;100.00
18819;BME280;9537;45.594;9.294;2022-10-16T04:29:07;100167.91;;;15.89;100.00
18819;BME280;9537;45.594;9.294;2022-10-16T04:30:09;100171.56;;;15.88;100.00
18819;BME280;9537;45.594;9.294;2022-10-16T04:31:11;100167.91;;;15.89;100.00
18819;BME280;9537;45.594;9.294;2022-10-16T04:32:14;100173.25;;;15.89;100.00
18819;BME280;9537;45.594;9.294;2022-10-16T04:33:16;100173.41;;;15.87;100.00
18819;BME280;9537;45.594;9.294;2022-10-16T04:34:18;100172.59;;;15.87;100.00
18819;BME280;9537;45.594;9.294;2022-10-16T04:35:20;100168.09;;;15.87;100.00
18819;BME280;9537;45.594;9.294;2022-10-16T04:36:23;100168.91;;;15.88;100.00
18819;BME280;9537;45.594;9.294;2022-10-16T04:37:24;100174.25;;;15.88;100.00
18819;BME280;9537;45.594;9.294;2022-10-16T04:38:26;100172.44;;;15.88;100.00
18819;BME280;9537;45.594;9.294;2022-10-16T04:39:27;100173.25;;;15.89;100.00
18819;BME280;9537;45.594;9.294;2022-10-16T04:40:30;100169.75;;;15.88;100.00
18819;BME280;9537;45.594;9.294;2022-10-16T04:41:33;100168.09;;;15.87;100.00
18819;BME280;9537;45.594;9.294;2022-10-16T04:42:34;100177.75;;;15.88;100.00
18819;BME280;9537;45.594;9.294;2022-10-16T04:43:36;100166.06;;;15.89;100.00
18819;BME280;9537;45.594;9.294;2022-10-16T04:44:38;100175.91;;;15.89;100.00
18819;BME280;9537;45.594;9.294;2022-10-16T04:45:40;100169.56;;;15.90;100.00
18819;BME280;9537;45.594;9.294;2022-10-16T04:46:41;100174.06;;;15.89;100.00
18819;BME280;9537;45.594;9.294;2022-10-16T04:47:44;100175.91;;;15.89;100.00
18819;BME280;9537;45.594;9.294;2022-10-16T04:48:45;100180.22;;;15.90;100.00
18819;BME280;9537;45.594;9.294;2022-10-16T04:49:47;100177.53;;;15.90;100.00
18819;BME280;9537;45.594;9.294;2022-10-16T04:50:49;100182.88;;;15.90;100.00
18819;BME280;9537;45.594;9.294;2022-10-16T04:51:51;100168.53;;;15.91;100.00
18819;BME280;9537;45.594;9.294;2022-10-16T04:52:52;100169.38;;;15.91;100.00
18819;BME280;9537;45.594;9.294;2022-10-16T04:53:54;100165.69;;;15.92;100.00
18819;BME280;9537;45.594;9.294;2022-10-16T04:54:56;100172.84;;;15.92;100.00
18819;BME280;9537;45.594;9.294;2022-10-16T04:56:01;100165.69;;;15.92;100.00
18819;BME280;9537;45.594;9.294;2022-10-16T04:57:02;100170.19;;;15.92;100.00
18819;BME280;9537;45.594;9.294;2022-10-16T04:58:05;100175.31;;;15.93;100.00
18819;BME280;9537;45.594;9.294;2022-10-16T04:59:06;100176.16;;;15.94;100.00
18819;BME280;9537;45.594;9.294;2022-10-16T05:00:09;100166.50;;;15.93;100.00
18819;BME280;9537;45.594;9.294;2022-10-16T05:01:10;100172.84;;;15.92;100.00
18819;BME280;9537;45.594;9.294;2022-10-16T05:02:12;100177.16;;;15.93;100.00
18819;BME280;9537;45.594;9.294;2022-10-16T05:03:16;100182.47;;;15.93;100.00
18819;BME280;9537;45.594;9.294;2022-10-16T05:04:19;100183.50;;;15.92;100.00
18819;BME280;9537;45.594;9.294;2022-10-16T05:05:20;100181.84;;;15.91;100.00
18819;BME280;9537;45.594;9.294;2022-10-16T05:06:23;100184.72;;;15.89;100.00
18819;BME280;9537;45.594;9.294;2022-10-16T05:07:24;100183.91;;;15.89;100.00
18819;BME280;9537;45.594;9.294;2022-10-16T05:08:26;100186.75;;;15.87;100.00
18819;BME280;9537;45.594;9.294;2022-10-16T05:09:27;100188.59;;;15.87;100.00
18819;BME280;9537;45.594;9.294;2022-10-16T05:10:30;100184.91;;;15.88;100.00
18819;BME280;9537;45.594;9.294;2022-10-16T05:11:31;100189.22;;;15.89;100.00
18819;BME280;9537;45.594;9.294;2022-10-16T05:12:33;100183.91;;;15.89;100.00
18819;BME280;9537;45.594;9.294;2022-10-16T05:13:34;100186.56;;;15.89;100.00
18819;BME280;9537;45.594;9.294;2022-10-16T05:14:36;100191.88;;;15.89;100.00
18819;BME280;9537;45.594;9.294;2022-10-16T05:15:38;100182.88;;;15.90;100.00
18819;BME280;9537;45.594;9.294;2022-10-16T05:16:40;100192.50;;;15.91;100.00
18819;BME280;9537;45.594;9.294;2022-10-16T05:17:41;100184.50;;;15.91;100.00
18819;BME280;9537;45.594;9.294;2022-10-16T05:18:44;100188.19;;;15.90;100.00
18819;BME280;9537;45.594;9.294;2022-10-16T05:19:45;100191.69;;;15.90;100.00
18819;BME280;9537;45.594;9.294;2022-10-16T05:20:47;100189.00;;;15.90;100.00
18819;BME280;9537;45.594;9.294;2022-10-16T05:21:48;100186.56;;;15.89;100.00
18819;BME280;9537;45.594;9.294;2022-10-16T05:22:51;100182.88;;;15.90;100.00
18819;BME280;9537;45.594;9.294;2022-10-16T05:23:52;100189.81;;;15.91;100.00
18819;BME280;9537;45.594;9.294;2022-10-16T05:24:55;100183.69;;;15.90;100.00
18819;BME280;9537;45.594;9.294;2022-10-16T05:25:57;100192.50;;;15.91;100.00
18819;BME280;9537;45.594;9.294;2022-10-16T05:27:00;100186.16;;;15.92;100.00
18819;BME280;9537;45.594;9.294;2022-10-16T05:28:01;100192.50;;;15.91;100.00
18819;BME280;9537;45.594;9.294;2022-10-16T05:29:03;100197.63;;;15.92;100.00
18819;BME280;9537;45.594;9.294;2022-10-16T05:30:05;100189.66;;;15.92;100.00
18819;BME280;9537;45.594;9.294;2022-10-16T05:31:09;100191.91;;;15.95;100.00